Time;durP1;ratioP1;P1;durP2;ratioP2;P2;SDS_P1;SDS_P2;PMS_P1;PMS_P2;Temp;Humidity;BMP_temperature;BMP_pressure;BME280_temperature;BME280_humidity;BME280_pressure;Samples;Min_cycle;Max_cycle;Signal;HPM_P1;HPM_P2
2021/12/02 00:00:29;;;;;;;5.40;1.65;;;9.00;67.50;;;;;;6114968;23;20435;-50
2021/12/02 00:02:55;;;;;;;8.05;1.75;;;9.00;67.50;;;;;;6113275;23;20721;-51
2021/12/02 00:05:22;;;;;;;3.20;1.30;;;9.00;67.50;;;;;;6110997;23;20351;-51
2021/12/02 00:07:49;;;;;;;5.68;1.80;;;8.90;67.40;;;;;;6113793;23;20002;-54
2021/12/02 00:10:15;;;;;;;7.43;1.75;;;8.90;67.30;;;;;;6115847;23;20006;-53
2021/12/02 00:12:41;;;;;;;8.07;1.90;;;8.90;67.40;;;;;;6114086;23;20006;-52
2021/12/02 00:15:12;;;;;;;7.60;1.80;;;8.90;67.40;;;;;;6113709;23;20002;-55
2021/12/02 00:17:41;;;;;;;6.93;1.95;;;8.90;67.50;;;;;;6116039;23;19998;-51
2021/12/02 00:23:10;;;;;;;7.85;1.90;;;8.90;67.50;;;;;;6122404;23;20458;-56
2021/12/02 00:25:36;;;;;;;;;;;8.90;67.40;;;;;;6124937;23;20013;-56
2021/12/02 00:28:04;;;;;;;7.43;1.83;;;8.90;67.70;;;;;;6113187;23;20607;-52
2021/12/02 00:30:31;;;;;;;5.28;1.85;;;8.90;67.20;;;;;;6115899;23;20431;-54
2021/12/02 00:33:01;;;;;;;10.57;1.75;;;8.90;67.90;;;;;;6112889;23;20013;-54
2021/12/02 00:35:28;;;;;;;8.43;2.08;;;8.90;67.50;;;;;;6113165;23;20005;-53
2021/12/02 00:37:56;;;;;;;11.65;1.88;;;8.90;67.70;;;;;;6114044;23;20013;-56
2021/12/02 00:40:22;;;;;;;6.70;1.90;;;8.90;67.50;;;;;;6115485;23;19998;-51
2021/12/02 00:42:49;;;;;;;6.68;1.85;;;8.90;67.40;;;;;;6114615;23;20006;-52
2021/12/02 00:45:15;;;;;;;5.18;1.88;;;8.80;67.40;;;;;;6113089;23;20006;-54
2021/12/02 00:47:42;;;;;;;5.68;1.65;;;8.90;67.40;;;;;;6115097;23;20331;-53
2021/12/02 00:50:08;;;;;;;10.05;1.88;;;8.90;67.00;;;;;;6114573;23;20006;-54
2021/12/02 00:52:36;;;;;;;8.63;1.63;;;8.90;66.70;;;;;;6134678;23;20764;-53
2021/12/02 00:55:03;;;;;;;5.07;1.98;;;8.90;66.60;;;;;;6113842;23;20439;-54
2021/12/02 00:57:29;;;;;;;6.35;2.08;;;8.90;66.40;;;;;;6113195;23;20336;-56
2021/12/02 00:59:57;;;;;;;9.32;1.45;;;8.80;66.40;;;;;;6114737;23;20006;-54
2021/12/02 01:02:24;;;;;;;9.07;1.85;;;8.80;66.30;;;;;;6114305;23;20004;-52
2021/12/02 01:04:51;;;;;;;6.05;1.60;;;8.80;66.10;;;;;;6112451;23;20006;-53
2021/12/02 01:07:17;;;;;;;11.07;1.77;;;8.80;66.80;;;;;;6113591;23;19994;-52
2021/12/02 01:09:48;;;;;;;5.95;1.73;;;8.80;66.00;;;;;;6115723;23;20010;-52
2021/12/02 01:12:14;;;;;;;8.48;1.90;;;8.80;66.00;;;;;;6112125;23;20010;-56
2021/12/02 01:14:43;;;;;;;6.93;1.90;;;8.80;66.20;;;;;;6113082;23;19998;-54
2021/12/02 01:17:10;;;;;;;12.23;2.53;;;8.70;66.00;;;;;;6114510;23;19998;-52
2021/12/02 01:19:36;;;;;;;8.15;2.33;;;8.70;66.10;;;;;;6115784;23;20002;-55
2021/12/02 01:22:03;;;;;;;6.45;1.80;;;8.70;66.20;;;;;;6114772;23;20439;-55
2021/12/02 01:24:31;;;;;;;5.90;2.05;;;8.70;66.20;;;;;;6112406;23;20010;-54
2021/12/02 01:27:00;;;;;;;12.77;2.75;;;8.70;66.20;;;;;;6114227;23;20010;-56
2021/12/02 01:29:26;;;;;;;7.50;1.70;;;8.70;66.00;;;;;;6114958;23;20002;-53
2021/12/02 01:31:56;;;;;;;7.13;1.95;;;8.70;66.00;;;;;;6114415;23;20439;-52
2021/12/02 01:34:25;;;;;;;6.28;1.92;;;8.70;66.00;;;;;;6110019;23;19998;-56
2021/12/02 01:36:53;;;;;;;3.97;1.77;;;8.70;65.90;;;;;;6111073;23;20339;-55
2021/12/02 01:39:21;;;;;;;7.55;2.53;;;8.70;65.90;;;;;;6115563;23;19994;-57
2021/12/02 01:41:51;;;;;;;9.65;2.50;;;8.60;65.90;;;;;;6115427;23;20005;-55
2021/12/02 01:44:19;;;;;;;8.48;2.20;;;8.60;66.00;;;;;;6111246;23;20331;-53
2021/12/02 01:46:52;;;;;;;4.95;1.85;;;8.60;66.00;;;;;;6113925;23;20013;-53
2021/12/02 01:49:21;;;;;;;12.45;2.38;;;8.60;65.90;;;;;;6113351;23;20013;-53
2021/12/02 01:51:51;;;;;;;12.02;2.30;;;8.60;66.00;;;;;;6112829;23;20017;-54
2021/12/02 01:54:22;;;;;;;9.05;2.55;;;8.60;66.10;;;;;;6111488;23;20001;-55
2021/12/02 01:56:52;;;;;;;7.13;2.53;;;8.60;66.10;;;;;;6115415;23;20002;-52
2021/12/02 01:59:25;;;;;;;9.90;2.40;;;8.60;66.10;;;;;;6111150;23;20002;-54
2021/12/02 02:01:56;;;;;;;9.87;2.50;;;8.60;65.90;;;;;;6123906;23;20005;-54
2021/12/02 02:04:23;;;;;;;10.35;3.03;;;8.50;65.80;;;;;;6120921;23;20934;-54
2021/12/02 02:06:58;;;;;;;6.68;2.30;;;8.60;65.80;;;;;;6114932;23;20419;-54
2021/12/02 02:09:29;;;;;;;11.75;3.13;;;8.60;65.80;;;;;;6126694;23;20375;-53
2021/12/02 02:11:56;;;;;;;13.55;2.55;;;8.50;65.60;;;;;;6115858;23;20010;-55
2021/12/02 02:14:31;;;;;;;11.60;2.60;;;8.60;65.70;;;;;;6113812;23;20169;-53
2021/12/02 02:17:01;;;;;;;10.02;3.17;;;8.50;65.70;;;;;;6113597;23;19998;-54
2021/12/02 02:19:30;;;;;;;11.57;3.33;;;8.50;65.80;;;;;;6114876;23;20450;-55
2021/12/02 02:21:58;;;;;;;9.15;2.67;;;8.50;65.80;;;;;;6113676;23;20013;-55
2021/12/02 02:24:24;;;;;;;7.82;2.38;;;8.50;65.90;;;;;;6115532;23;20006;-56
2021/12/02 02:26:50;;;;;;;7.40;2.42;;;8.50;65.90;;;;;;6116175;23;20012;-55
2021/12/02 02:29:18;;;;;;;10.95;3.08;;;8.50;66.00;;;;;;6115673;23;19998;-55
2021/12/02 02:31:47;;;;;;;5.82;2.75;;;8.50;66.00;;;;;;6115564;23;20775;-54
2021/12/02 02:34:13;;;;;;;7.20;2.63;;;8.50;66.10;;;;;;6112576;23;20316;-57
2021/12/02 02:36:50;;;;;;;9.60;2.70;;;8.50;66.10;;;;;;6111895;23;20006;-56
2021/12/02 02:39:17;;;;;;;12.93;3.38;;;8.50;66.10;;;;;;6114249;23;20012;-54
2021/12/02 02:41:46;;;;;;;12.20;2.75;;;8.50;66.10;;;;;;6112888;23;20196;-57
2021/12/02 02:44:13;;;;;;;7.45;2.80;;;8.50;66.10;;;;;;6114356;23;20414;-54
2021/12/02 02:46:41;;;;;;;11.18;3.25;;;8.50;66.70;;;;;;6115257;23;20006;-57
2021/12/02 02:49:11;;;;;;;8.13;2.70;;;8.50;66.00;;;;;;6116438;23;20009;-56
2021/12/02 02:51:39;;;;;;;9.63;2.88;;;8.50;66.00;;;;;;6112156;23;20034;-56
2021/12/02 02:54:08;;;;;;;12.18;3.60;;;8.50;66.10;;;;;;6111897;23;20006;-56
2021/12/02 02:56:42;;;;;;;12.15;2.67;;;8.50;66.10;;;;;;6116710;23;20002;-57
2021/12/02 02:59:21;;;;;;;9.55;2.88;;;8.50;66.00;;;;;;6125823;23;20009;-55
2021/12/02 03:07:21;;;;;;;9.40;2.53;;;8.60;65.90;;;;;;6125084;23;20018;-52
2021/12/02 03:09:57;;;;;;;9.25;2.70;;;8.60;65.90;;;;;;6115946;23;20009;-55
2021/12/02 03:17:38;;;;;;;9.82;2.10;;;8.60;65.70;;;;;;6138069;23;20432;-54
2021/12/02 03:20:05;;;;;;;8.70;2.05;;;8.60;65.60;;;;;;6117397;23;20005;-55
2021/12/02 03:22:33;;;;;;;8.55;2.60;;;8.60;65.40;;;;;;6114987;23;20001;-52
2021/12/02 03:25:00;;;;;;;7.05;2.15;;;8.60;65.00;;;;;;6114386;23;20450;-55
2021/12/02 03:27:26;;;;;;;9.95;2.28;;;8.60;65.00;;;;;;6113928;23;20005;-54
2021/12/02 03:29:52;;;;;;;10.20;2.67;;;8.60;64.90;;;;;;6115633;23;20006;-56
2021/12/02 03:32:18;;;;;;;7.25;2.38;;;8.60;64.90;;;;;;6114961;23;20013;-54
2021/12/02 03:34:45;;;;;;;11.40;3.00;;;8.60;64.90;;;;;;6113827;23;20175;-55
2021/12/02 03:37:11;;;;;;;11.50;3.15;;;8.60;64.90;;;;;;6113408;23;20002;-54
2021/12/02 03:39:37;;;;;;;11.70;3.17;;;8.60;64.80;;;;;;6116526;23;20021;-57
2021/12/02 03:42:05;;;;;;;10.25;2.97;;;8.60;64.80;;;;;;6115968;23;20025;-51
2021/12/02 03:44:32;;;;;;;8.90;2.72;;;8.60;64.80;;;;;;6111433;23;20017;-55
2021/12/02 03:46:59;;;;;;;11.57;2.88;;;8.60;64.80;;;;;;6113497;23;20323;-51
2021/12/02 03:49:25;;;;;;;8.70;2.20;;;8.50;64.30;;;;;;6115672;23;20358;-54
2021/12/02 03:51:51;;;;;;;16.25;2.35;;;8.50;63.90;;;;;;6113676;23;20021;-54
2021/12/02 03:54:18;;;;;;;9.93;2.20;;;8.50;63.70;;;;;;6113899;23;20002;-56
2021/12/02 03:56:44;;;;;;;11.40;2.13;;;8.40;63.80;;;;;;6115348;23;20431;-53
2021/12/02 03:59:10;;;;;;;10.43;2.22;;;8.40;63.80;;;;;;6115896;23;19994;-53
2021/12/02 04:01:36;;;;;;;7.43;2.55;;;8.30;63.90;;;;;;6115288;23;20005;-56
2021/12/02 04:04:03;;;;;;;4.75;2.05;;;8.30;64.20;;;;;;6110724;23;20443;-51
2021/12/02 04:06:29;;;;;;;9.20;2.47;;;8.30;64.40;;;;;;6113296;23;20005;-56
2021/12/02 04:09:01;;;;;;;6.70;3.03;;;8.30;64.70;;;;;;6116488;23;20021;-54
2021/12/02 04:11:32;;;;;;;14.45;3.10;;;8.20;64.80;;;;;;6114736;23;20014;-56
2021/12/02 04:16:31;;;;;;;10.52;2.72;;;8.20;65.20;;;;;;6113022;23;20009;-53
2021/12/02 04:18:57;;;;;;;10.27;2.58;;;8.20;65.30;;;;;;6116359;23;20002;-52
2021/12/02 04:21:24;;;;;;;7.70;2.55;;;8.20;65.30;;;;;;6112149;23;20036;-53
2021/12/02 04:23:50;;;;;;;8.75;2.15;;;8.20;65.50;;;;;;6111292;23;20009;-54
2021/12/02 04:26:16;;;;;;;7.85;2.35;;;8.20;65.40;;;;;;6113415;23;20439;-54
2021/12/02 04:28:43;;;;;;;9.00;2.40;;;8.10;65.40;;;;;;6115031;23;20331;-53
2021/12/02 04:31:09;;;;;;;6.65;2.00;;;8.20;65.50;;;;;;6113923;23;20002;-53
2021/12/02 04:33:35;;;;;;;7.85;2.15;;;8.20;65.50;;;;;;6113171;23;20443;-56
2021/12/02 04:36:02;;;;;;;8.45;2.05;;;8.20;65.60;;;;;;6115130;23;19998;-53
2021/12/02 04:38:29;;;;;;;11.75;2.15;;;8.20;65.60;;;;;;6115349;23;20006;-53
2021/12/02 04:40:56;;;;;;;8.55;2.25;;;8.10;65.60;;;;;;6114275;23;20010;-54
2021/12/02 04:43:23;;;;;;;5.80;2.22;;;8.10;65.50;;;;;;6113305;23;20006;-51
2021/12/02 04:45:49;;;;;;;7.38;1.95;;;8.10;65.50;;;;;;6114920;23;20062;-54
2021/12/02 04:48:16;;;;;;;8.40;2.15;;;8.20;65.60;;;;;;6115704;23;20009;-56
2021/12/02 04:50:43;;;;;;;7.88;1.60;;;8.10;65.50;;;;;;6114564;23;20009;-56
2021/12/02 04:53:09;;;;;;;7.07;1.63;;;8.10;65.40;;;;;;6111120;23;20022;-55
2021/12/02 04:55:35;;;;;;;6.55;1.60;;;8.10;65.40;;;;;;6114365;23;20017;-52
2021/12/02 04:58:02;;;;;;;5.50;1.42;;;8.10;65.40;;;;;;6114245;23;20443;-50
2021/12/02 05:00:28;;;;;;;14.75;2.22;;;8.10;65.60;;;;;;6114388;23;20001;-52
2021/12/02 05:02:54;;;;;;;8.18;1.90;;;8.10;65.70;;;;;;6114116;23;20013;-56
2021/12/02 05:05:22;;;;;;;8.93;2.50;;;8.10;65.60;;;;;;6113954;23;19998;-53
2021/12/02 05:07:49;;;;;;;4.43;1.70;;;8.10;65.60;;;;;;6112201;23;20340;-50
2021/12/02 05:10:15;;;;;;;8.05;1.75;;;8.10;65.50;;;;;;6113328;23;20291;-51
2021/12/02 05:12:41;;;;;;;6.22;2.13;;;8.10;65.40;;;;;;6110588;23;20336;-52
2021/12/02 05:15:08;;;;;;;12.63;2.58;;;8.00;65.30;;;;;;6112938;23;20021;-51
2021/12/02 05:17:34;;;;;;;7.03;2.13;;;8.00;65.30;;;;;;6108213;23;20002;-52
2021/12/02 05:20:00;;;;;;;8.65;2.28;;;8.00;65.40;;;;;;6109654;23;20002;-53
2021/12/02 05:22:26;;;;;;;7.60;2.47;;;8.00;65.60;;;;;;6113277;23;20002;-53
2021/12/02 05:24:53;;;;;;;7.57;2.53;;;8.00;65.70;;;;;;6112858;23;20006;-52
2021/12/02 05:27:19;;;;;;;8.20;2.13;;;8.00;65.80;;;;;;6113642;23;20009;-53
2021/12/02 05:29:45;;;;;;;10.70;2.28;;;8.00;65.70;;;;;;6114181;23;20479;-55
2021/12/02 05:32:11;;;;;;;8.45;2.40;;;8.00;65.60;;;;;;6112991;23;20018;-53
2021/12/02 05:34:38;;;;;;;11.15;1.85;;;8.10;65.70;;;;;;6110368;23;20428;-53
2021/12/02 05:37:04;;;;;;;11.30;2.47;;;8.10;65.80;;;;;;6112957;23;20331;-53
2021/12/02 05:39:30;;;;;;;12.65;2.83;;;8.10;65.80;;;;;;6113886;23;20010;-52
2021/12/02 05:41:57;;;;;;;9.50;2.67;;;8.10;65.90;;;;;;6111945;23;20189;-53
2021/12/02 05:44:24;;;;;;;8.50;2.85;;;8.10;65.80;;;;;;6109524;23;20424;-54
2021/12/02 05:46:51;;;;;;;9.25;2.10;;;8.10;65.80;;;;;;6114406;23;20045;-55
2021/12/02 05:49:17;;;;;;;7.40;2.58;;;8.10;65.80;;;;;;6114541;23;19998;-55
2021/12/02 05:51:45;;;;;;;11.27;2.90;;;8.10;65.80;;;;;;6113692;23;20028;-53
2021/12/02 05:54:11;;;;;;;9.43;3.15;;;8.10;65.80;;;;;;6112195;23;20013;-53
2021/12/02 05:56:40;;;;;;;10.45;2.80;;;8.10;65.90;;;;;;6114013;23;20009;-56
2021/12/02 05:59:07;;;;;;;13.73;3.63;;;8.10;65.80;;;;;;6114122;23;20454;-51
2021/12/02 06:01:34;;;;;;;12.30;2.78;;;8.10;65.60;;;;;;6113877;23;20005;-52
2021/12/02 06:04:01;;;;;;;5.68;2.53;;;8.10;65.60;;;;;;6112256;23;19998;-54
2021/12/02 06:06:27;;;;;;;8.98;2.33;;;8.10;65.50;;;;;;6112612;23;20006;-53
2021/12/02 06:08:54;;;;;;;13.30;3.35;;;8.10;65.50;;;;;;6114870;23;20024;-56
2021/12/02 06:11:20;;;;;;;6.93;2.67;;;8.10;65.40;;;;;;6112725;23;20432;-53
2021/12/02 06:13:46;;;;;;;9.00;2.53;;;8.10;65.40;;;;;;6113183;23;20013;-54
2021/12/02 06:16:13;;;;;;;5.25;2.00;;;8.10;65.20;;;;;;6113841;23;20001;-52
2021/12/02 06:18:39;;;;;;;6.80;2.17;;;8.10;65.10;;;;;;6112083;23;19998;-53
2021/12/02 06:21:05;;;;;;;7.20;1.80;;;8.00;64.80;;;;;;6109195;23;20006;-53
2021/12/02 06:23:32;;;;;;;7.60;2.28;;;8.00;64.80;;;;;;6111977;23;20428;-54
2021/12/02 06:25:58;;;;;;;8.82;2.08;;;8.00;64.80;;;;;;6114858;23;20323;-53
2021/12/02 06:28:24;;;;;;;11.65;2.00;;;7.90;64.60;;;;;;6136305;23;20002;-51
2021/12/02 06:30:50;;;;;;;7.10;2.15;;;7.90;64.70;;;;;;6113854;23;19995;-54
2021/12/02 06:33:17;;;;;;;7.60;2.10;;;7.90;64.90;;;;;;6107138;23;20017;-52
2021/12/02 06:35:43;;;;;;;9.60;2.70;;;7.90;65.00;;;;;;6113967;23;20002;-54
2021/12/02 06:38:10;;;;;;;10.45;2.85;;;7.90;65.10;;;;;;6109721;23;20018;-54
2021/12/02 06:40:38;;;;;;;13.00;3.22;;;7.90;65.20;;;;;;6114746;23;20428;-56
2021/12/02 06:43:05;;;;;;;10.43;2.65;;;7.80;65.20;;;;;;6113264;23;20013;-53
2021/12/02 06:45:32;;;;;;;18.02;3.75;;;7.90;65.20;;;;;;6113387;23;20002;-55
2021/12/02 06:47:59;;;;;;;12.80;3.70;;;7.80;65.10;;;;;;6109447;23;20002;-56
2021/12/02 06:50:28;;;;;;;10.05;3.80;;;7.80;65.20;;;;;;6111620;23;20006;-52
2021/12/02 06:52:54;;;;;;;11.85;4.05;;;7.80;65.20;;;;;;6105964;23;20014;-53
2021/12/02 06:55:21;;;;;;;8.02;3.97;;;7.80;65.30;;;;;;6110097;23;20284;-53
2021/12/02 06:57:47;;;;;;;9.75;3.40;;;7.80;65.30;;;;;;6110757;23;20302;-54
2021/12/02 07:00:16;;;;;;;6.63;2.65;;;7.80;65.10;;;;;;6112951;23;20010;-49
2021/12/02 07:02:43;;;;;;;7.28;2.00;;;7.80;64.60;;;;;;6110143;23;20006;-54
2021/12/02 07:05:12;;;;;;;6.78;1.90;;;7.70;64.10;;;;;;6113296;23;20006;-54
2021/12/02 07:07:38;;;;;;;3.17;1.55;;;7.60;64.00;;;;;;6112558;23;20737;-53
2021/12/02 07:10:14;;;;;;;6.22;1.50;;;7.60;63.80;;;;;;6115335;23;19994;-52
2021/12/02 07:12:42;;;;;;;6.28;1.92;;;7.50;63.40;;;;;;6124132;23;20033;-53
2021/12/02 07:15:20;;;;;;;5.28;2.30;;;7.50;63.30;;;;;;6115276;23;20184;-53
2021/12/02 07:17:55;;;;;;;6.70;2.80;;;7.40;63.50;;;;;;6116987;23;20055;-53
2021/12/02 07:20:23;;;;;;;10.63;4.28;;;7.40;63.80;;;;;;6125393;23;20009;-52
2021/12/02 07:22:50;;;;;;;11.85;4.38;;;7.30;64.20;;;;;;6111584;23;20017;-54
2021/12/02 07:25:16;;;;;;;10.00;4.47;;;7.20;64.50;;;;;;6107646;23;19998;-54
2021/12/02 07:27:42;;;;;;;18.10;4.70;;;7.20;64.90;;;;;;6108960;23;20013;-52
2021/12/02 07:30:09;;;;;;;16.33;4.53;;;7.10;65.30;;;;;;6112214;23;20432;-52
2021/12/02 07:32:39;;;;;;;18.50;5.03;;;7.10;65.80;;;;;;6113338;23;20006;-54
2021/12/02 07:35:14;;;;;;;14.48;6.05;;;7.00;66.20;;;;;;6112727;23;20021;-54
2021/12/02 07:37:46;;;;;;;11.68;4.97;;;7.00;66.50;;;;;;6111433;23;20057;-51
2021/12/02 07:40:15;;;;;;;12.85;5.70;;;7.10;66.80;;;;;;6114100;23;20001;-53
2021/12/02 07:42:41;;;;;;;8.93;5.28;;;7.10;66.90;;;;;;6113734;23;20017;-55
2021/12/02 07:45:09;;;;;;;21.33;6.68;;;7.10;67.10;;;;;;6113667;23;20313;-53
2021/12/02 07:47:38;;;;;;;12.80;6.07;;;7.10;67.30;;;;;;6113287;23;19994;-52
2021/12/02 07:50:06;;;;;;;14.05;5.38;;;7.10;67.50;;;;;;6113471;23;20005;-54
2021/12/02 07:52:34;;;;;;;14.95;5.30;;;7.10;67.50;;;;;;6111293;23;20018;-53
2021/12/02 07:55:06;;;;;;;13.23;5.35;;;7.10;67.20;;;;;;6112762;23;20002;-54
2021/12/02 07:57:34;;;;;;;11.23;5.22;;;7.20;67.10;;;;;;6112084;23;20006;-50
2021/12/02 08:00:01;;;;;;;11.70;5.25;;;7.20;67.00;;;;;;6114116;23;20329;-54
2021/12/02 08:02:32;;;;;;;13.32;5.88;;;7.20;67.00;;;;;;6114641;23;20021;-55
2021/12/02 08:04:59;;;;;;;13.18;5.72;;;7.20;67.10;;;;;;6122484;23;20005;-50
2021/12/02 08:07:25;;;;;;;11.88;5.32;;;7.20;67.00;;;;;;6112697;23;20006;-55
2021/12/02 08:09:52;;;;;;;16.08;6.80;;;7.20;66.80;;;;;;6115720;23;20017;-54
2021/12/02 08:12:18;;;;;;;13.15;5.70;;;7.20;66.80;;;;;;6114806;23;20009;-54
2021/12/02 08:14:44;;;;;;;12.07;5.63;;;7.20;67.00;;;;;;6113340;23;20007;-52
2021/12/02 08:17:11;;;;;;;10.93;5.60;;;7.20;67.20;;;;;;6112131;23;20013;-53
2021/12/02 08:19:37;;;;;;;20.15;6.40;;;7.10;67.30;;;;;;6113390;23;20021;-53
2021/12/02 08:22:03;;;;;;;14.10;5.68;;;7.10;67.50;;;;;;6114009;23;19998;-52
2021/12/02 08:24:29;;;;;;;11.40;5.97;;;7.20;67.50;;;;;;6113802;23;20001;-51
2021/12/02 08:26:56;;;;;;;9.88;5.57;;;7.20;67.40;;;;;;6114869;23;20001;-55
2021/12/02 08:29:22;;;;;;;10.82;4.90;;;7.10;67.20;;;;;;6113563;23;20009;-52
2021/12/02 08:31:48;;;;;;;7.25;3.28;;;7.10;66.90;;;;;;6112911;23;20005;-52
2021/12/02 08:34:16;;;;;;;7.30;2.88;;;7.10;66.50;;;;;;6114740;23;20010;-55
2021/12/02 08:36:51;;;;;;;6.93;2.60;;;7.10;66.20;;;;;;6111810;23;20460;-54
2021/12/02 08:39:22;;;;;;;5.43;2.70;;;7.00;66.20;;;;;;6114727;23;20010;-57
2021/12/02 08:41:49;;;;;;;9.85;2.63;;;7.00;66.20;;;;;;6114781;23;20017;-52
2021/12/02 08:44:18;;;;;;;5.38;2.63;;;7.00;66.20;;;;;;6114190;23;20002;-54
2021/12/02 08:46:45;;;;;;;6.28;2.78;;;6.90;66.10;;;;;;6112136;23;19998;-54
2021/12/02 08:49:12;;;;;;;8.95;3.22;;;6.90;66.50;;;;;;6112790;23;20009;-54
2021/12/02 08:51:39;;;;;;;13.90;3.78;;;6.90;66.70;;;;;;6113141;23;20017;-54
2021/12/02 08:54:05;;;;;;;13.70;3.70;;;6.90;66.80;;;;;;6111773;23;20318;-54
2021/12/02 08:56:32;;;;;;;8.95;3.20;;;6.90;66.90;;;;;;6112888;23;19998;-54
2021/12/02 08:58:59;;;;;;;10.05;4.10;;;6.90;67.10;;;;;;6114105;23;20001;-54
2021/12/02 09:01:28;;;;;;;7.88;3.95;;;6.90;67.10;;;;;;6113559;23;20021;-55
2021/12/02 09:03:56;;;;;;;10.40;4.22;;;6.90;67.00;;;;;;6114466;23;20455;-52
2021/12/02 09:06:25;;;;;;;7.60;3.97;;;6.90;67.00;;;;;;6113142;23;20001;-55
2021/12/02 09:08:54;;;;;;;9.13;4.25;;;6.90;66.90;;;;;;6115540;23;20012;-53
2021/12/02 09:11:20;;;;;;;7.88;4.18;;;6.90;66.90;;;;;;6113920;23;20013;-54
2021/12/02 09:13:47;;;;;;;8.05;3.90;;;6.90;66.80;;;;;;6113002;23;20029;-56
2021/12/02 09:16:14;;;;;;;6.43;4.00;;;7.00;67.10;;;;;;6111554;23;20013;-54
2021/12/02 09:18:40;;;;;;;8.57;4.05;;;6.90;66.90;;;;;;6112898;23;20443;-54
2021/12/02 09:21:07;;;;;;;6.32;3.70;;;6.90;67.00;;;;;;6114428;23;20328;-55
2021/12/02 09:23:34;;;;;;;8.52;4.28;;;6.90;67.00;;;;;;6135995;23;20016;-53
2021/12/02 09:26:00;;;;;;;9.88;4.25;;;6.90;66.90;;;;;;6111568;23;20005;-52
2021/12/02 09:28:26;;;;;;;8.25;4.43;;;6.90;66.90;;;;;;6110184;23;20017;-52
2021/12/02 09:30:53;;;;;;;8.25;4.47;;;6.90;67.00;;;;;;6111506;23;20439;-51
2021/12/02 09:33:19;;;;;;;9.30;4.82;;;6.90;66.90;;;;;;6110934;23;20006;-53
2021/12/02 09:35:45;;;;;;;8.75;5.03;;;7.00;67.10;;;;;;6107233;23;20231;-52
2021/12/02 09:38:12;;;;;;;7.40;5.30;;;7.00;67.10;;;;;;6107343;23;20014;-55
2021/12/02 09:40:40;;;;;;;10.27;5.57;;;7.00;67.10;;;;;;6132549;23;20435;-52
2021/12/02 09:43:07;;;;;;;8.65;5.40;;;7.00;66.90;;;;;;6112309;23;20006;-55
2021/12/02 09:45:33;;;;;;;8.05;5.85;;;7.00;67.00;;;;;;6133218;23;20006;-53
2021/12/02 09:48:00;;;;;;;10.88;6.07;;;7.00;67.00;;;;;;6112709;23;20006;-52
2021/12/02 09:50:32;;;;;;;10.52;6.05;;;7.00;66.70;;;;;;6112836;23;20003;-52
2021/12/02 09:53:23;;;;;;;8.48;5.25;;;7.00;66.70;;;;;;6110349;23;20010;-53
2021/12/02 09:55:52;;;;;;;12.68;5.60;;;7.10;66.80;;;;;;6113995;23;20010;-53
2021/12/02 09:58:27;;;;;;;7.78;5.32;;;7.10;66.70;;;;;;6111882;23;20424;-53
2021/12/02 10:01:14;;;;;;;11.38;5.90;;;7.10;66.40;;;;;;6110096;23;20006;-50
2021/12/02 10:03:44;;;;;;;8.48;4.38;;;7.20;66.30;;;;;;6113066;23;19998;-53
2021/12/02 10:06:16;;;;;;;9.13;5.20;;;7.20;66.30;;;;;;6113097;23;20013;-52
2021/12/02 10:09:08;;;;;;;8.13;4.93;;;7.20;66.30;;;;;;6112141;23;20545;-51
2021/12/02 10:11:45;;;;;;;9.60;5.20;;;7.20;66.30;;;;;;6114494;23;20308;-54
2021/12/02 10:14:27;;;;;;;7.47;4.60;;;7.30;66.40;;;;;;6121548;23;20006;-51
2021/12/02 10:17:18;;;;;;;11.45;4.90;;;7.30;66.30;;;;;;6113801;23;20335;-54
2021/12/02 10:23:17;;;;;;;5.32;4.05;;;7.30;65.40;;;;;;6121568;23;20317;-51
2021/12/02 10:26:00;;;;;;;5.63;4.15;;;7.30;65.50;;;;;;6124772;23;20400;-52
2021/12/02 10:28:29;;;;;;;7.55;4.20;;;7.20;65.40;;;;;;6114312;23;20192;-51
2021/12/02 10:31:02;;;;;;;9.98;4.50;;;7.30;65.40;;;;;;6115854;23;20006;-52
2021/12/02 10:33:33;;;;;;;8.00;4.25;;;7.30;65.20;;;;;;6137103;23;20473;-55
2021/12/02 10:36:02;;;;;;;8.63;3.97;;;7.20;64.60;;;;;;6114676;23;20013;-54
2021/12/02 10:38:39;;;;;;;6.25;3.80;;;7.20;64.40;;;;;;6112257;23;20405;-54
2021/12/02 10:41:08;;;;;;;8.40;3.38;;;7.20;64.50;;;;;;6126395;23;20006;-54
2021/12/02 10:43:35;;;;;;;5.55;3.42;;;7.20;64.80;;;;;;6114279;23;20327;-56
2021/12/02 10:46:16;;;;;;;9.75;3.92;;;7.20;64.80;;;;;;6114416;23;20017;-54
2021/12/02 10:48:51;;;;;;;8.13;3.70;;;7.20;64.30;;;;;;6115076;23;20522;-52
2021/12/02 10:51:46;;;;;;;5.78;3.03;;;7.20;64.50;;;;;;6122096;23;20020;-52
2021/12/02 10:54:16;;;;;;;7.00;3.53;;;7.20;64.30;;;;;;6123517;23;20006;-55
2021/12/02 10:56:46;;;;;;;9.75;3.70;;;7.20;64.50;;;;;;6110264;23;20336;-53
2021/12/02 10:59:33;;;;;;;5.78;3.75;;;7.20;65.40;;;;;;6110145;23;20450;-51
2021/12/02 11:02:36;;;;;;;9.38;4.40;;;7.20;64.60;;;;;;6114060;23;20009;-55
2021/12/02 11:05:08;;;;;;;8.15;4.05;;;7.20;64.90;;;;;;6114296;23;20010;-53
2021/12/02 11:07:40;;;;;;;6.53;3.53;;;7.20;65.40;;;;;;6109175;23;20006;-53
2021/12/02 11:10:12;;;;;;;7.13;3.15;;;7.20;65.70;;;;;;6124569;23;20002;-54
2021/12/02 11:12:41;;;;;;;5.15;2.80;;;7.30;65.80;;;;;;6114461;23;20002;-54
2021/12/02 11:15:12;;;;;;;3.88;2.70;;;7.30;65.60;;;;;;6114889;23;20272;-53
2021/12/02 11:18:16;;;;;;;7.20;2.95;;;7.30;65.10;;;;;;6116654;23;20010;-53
2021/12/02 11:24:04;;;;;;;6.60;3.30;;;7.40;64.50;;;;;;6132725;23;20006;-53
2021/12/02 11:27:39;;;;;;;4.97;3.63;;;7.40;64.50;;;;;;6122480;23;20024;-52
2021/12/02 11:30:34;;;;;;;7.28;3.58;;;7.40;64.40;;;;;;6095646;23;20014;-55
2021/12/02 11:33:02;;;;;;;6.15;3.13;;;7.30;63.90;;;;;;6102778;23;20006;-54
2021/12/02 11:35:36;;;;;;;6.75;3.55;;;7.40;63.50;;;;;;6114904;23;20296;-56
2021/12/02 11:38:09;;;;;;;5.53;2.75;;;7.30;63.20;;;;;;6114776;23;19994;-53
2021/12/02 11:40:42;;;;;;;7.65;2.90;;;7.20;62.60;;;;;;6112402;23;20414;-56
2021/12/02 11:43:13;;;;;;;8.25;2.78;;;7.10;61.90;;;;;;6124381;23;20002;-54
2021/12/02 11:45:47;;;;;;;10.75;2.85;;;7.00;62.10;;;;;;6113858;23;20001;-55
2021/12/02 11:48:26;;;;;;;5.53;2.60;;;7.00;62.20;;;;;;6123582;23;19998;-56
2021/12/02 11:50:55;;;;;;;7.80;3.03;;;6.90;62.30;;;;;;6123682;23;20006;-56
2021/12/02 11:53:22;;;;;;;8.82;3.38;;;6.90;62.20;;;;;;6111081;23;20018;-54
2021/12/02 11:55:52;;;;;;;9.43;3.58;;;6.80;62.20;;;;;;6113292;23;20010;-54
2021/12/02 11:58:18;;;;;;;6.50;3.08;;;6.80;62.40;;;;;;6113356;23;20006;-54
2021/12/02 12:00:46;;;;;;;6.75;3.38;;;6.70;62.80;;;;;;6116160;23;20327;-54
2021/12/02 12:03:19;;;;;;;8.07;3.90;;;6.70;63.50;;;;;;6112605;23;20032;-53
2021/12/02 12:06:16;;;;;;;8.57;3.50;;;6.70;63.60;;;;;;6125041;23;19998;-55
2021/12/02 12:08:50;;;;;;;9.20;2.72;;;6.70;63.90;;;;;;6106942;23;20002;-54
2021/12/02 12:11:25;;;;;;;;;;;6.80;63.80;;;;;;6115871;23;20002;-53
2021/12/02 12:14:08;;;;;;;6.53;2.67;;;6.90;63.80;;;;;;6122461;23;20238;-52
2021/12/02 12:16:36;;;;;;;9.90;2.30;;;6.90;63.10;;;;;;6124547;23;19994;-53
2021/12/02 12:19:34;;;;;;;7.07;2.00;;;6.90;63.10;;;;;;6115353;23;20438;-54
2021/12/02 12:22:03;;;;;;;6.07;2.10;;;6.90;62.60;;;;;;6123061;23;20001;-54
2021/12/02 12:24:54;;;;;;;8.82;2.28;;;6.90;62.30;;;;;;6113886;23;20005;-55
2021/12/02 12:27:29;;;;;;;12.77;2.15;;;6.80;62.50;;;;;;6124690;23;19998;-56
2021/12/02 12:30:04;;;;;;;5.93;2.15;;;6.80;62.70;;;;;;6113374;23;20013;-55
2021/12/02 12:38:04;;;;;;;9.55;1.77;;;6.90;62.70;;;;;;6124106;23;20002;-51
2021/12/02 12:40:42;;;;;;;7.90;2.17;;;7.00;62.70;;;;;;6115504;23;20002;-54
2021/12/02 12:43:09;;;;;;;5.97;1.65;;;7.00;62.70;;;;;;6113977;23;20431;-54
2021/12/02 12:45:40;;;;;;;7.18;1.80;;;7.00;62.40;;;;;;6115120;23;20079;-53
2021/12/02 12:48:09;;;;;;;5.00;1.33;;;7.00;61.90;;;;;;6114467;23;20336;-53
2021/12/02 12:50:42;;;;;;;6.68;1.85;;;7.00;62.00;;;;;;6114133;23;20428;-53
2021/12/02 12:53:16;;;;;;;6.05;1.92;;;7.10;62.10;;;;;;6113383;23;20029;-56
2021/12/02 12:56:03;;;;;;;8.45;2.22;;;7.10;61.60;;;;;;6124982;23;20204;-53
2021/12/02 12:58:32;;;;;;;6.57;2.25;;;7.10;61.50;;;;;;6114885;23;20033;-54
2021/12/02 13:01:02;;;;;;;6.68;2.35;;;7.20;61.50;;;;;;6115446;23;20002;-53
2021/12/02 13:03:44;;;;;;;6.50;2.15;;;7.20;61.30;;;;;;6112271;23;20454;-53
2021/12/02 13:06:23;;;;;;;6.07;2.20;;;7.20;61.10;;;;;;6121322;23;19998;-53
2021/12/02 13:08:54;;;;;;;4.95;1.95;;;7.30;60.70;;;;;;6122377;23;19997;-54
2021/12/02 13:11:27;;;;;;;8.00;2.50;;;7.30;60.10;;;;;;6114822;23;20415;-55
2021/12/02 13:13:55;;;;;;;8.20;2.60;;;7.30;59.80;;;;;;6111904;23;20006;-56
2021/12/02 13:16:21;;;;;;;4.38;2.38;;;7.30;59.70;;;;;;6115190;23;20005;-54
2021/12/02 13:18:59;;;;;;;8.43;2.20;;;7.30;59.70;;;;;;6113390;23;20327;-56
2021/12/02 13:21:32;;;;;;;12.18;2.60;;;7.30;59.60;;;;;;6109428;23;20025;-54
2021/12/02 13:24:09;;;;;;;11.20;2.65;;;7.30;59.70;;;;;;6123813;23;20013;-54
2021/12/02 13:26:37;;;;;;;6.55;2.22;;;7.30;60.10;;;;;;6115716;23;20006;-55
2021/12/02 13:29:05;;;;;;;4.45;1.88;;;7.30;59.50;;;;;;6114196;23;20446;-51
2021/12/02 13:31:32;;;;;;;7.47;2.33;;;7.40;59.80;;;;;;6115041;23;20005;-52
2021/12/02 13:34:07;;;;;;;5.18;2.00;;;7.30;59.70;;;;;;6114486;23;20013;-53
2021/12/02 13:36:51;;;;;;;7.57;1.70;;;7.30;59.40;;;;;;6113985;23;20029;-53